METAR AND TAF INFORMATION
METAR FOR CYPD
ADDS - METARS form results

(2138 UTC 18 July 2018)
Data provider http://aviationweather.gov/adds/metars/
 
METAR text: CYPD 182118Z AUTO 15005KT 9SM -RA OVC012 21/20 A2978 RMK SLP088 DENSITY ALT 1300FT
Conditions at: CYPD (PORT HAWKESBURY , NS, CA) observed 2118 UTC 18 July 2018
Temperature: 21.0°C (70°F)
Dewpoint: 20.0°C (68°F) [RH = 94%]
Pressure (altimeter): 29.78 inches Hg (1008.5 mb)
[Sea-level pressure: 1008.8 mb]
Winds: from the SSE (150 degrees) at 6 MPH (5 knots; 2.6 m/s)
Visibility: 9 miles (14 km)
Ceiling: 1200 feet AGL
Clouds: overcast cloud deck at 1200 feet AGL
Weather: -RA  (light rain)

METAR text: CYPD 182100Z AUTO 16004KT 140V220 9SM OVC012 22/20 A2978 RMK SLP087 DENSITY ALT 1300FT
Conditions at: CYPD (PORT HAWKESBURY , NS, CA) observed 2100 UTC 18 July 2018
Temperature: 22.0°C (72°F)
Dewpoint: 20.0°C (68°F) [RH = 88%]
Pressure (altimeter): 29.78 inches Hg (1008.5 mb)
[Sea-level pressure: 1008.7 mb]
Winds: from the SSE (160 degrees) at 5 MPH (4 knots; 2.1 m/s)
Visibility: 9 miles (14 km)
Ceiling: 1200 feet AGL
Clouds: overcast cloud deck at 1200 feet AGL
Weather: no significant weather observed at this time

 AIRPORT MAP

 RUNWAY INFORMATION
Runway 11 Runway length 5000 ft Runway width 150 ft
Runway elevation 334 ft Runway displaced threshold 0 ft Runway heading 90
Runway 29 Runway length 5000 ft Runway width 150 ft
Runway elevation 375 ft Runway displaced threshold 0 ft Runway heading 270

 AIRPORT FREQUENCIES
Type RDO Name HALIFAX RD Frequency 126.7 MHZ
Type UNIC Name ATF/UNICOM Frequency 122.8 MHZ

 AIRPORT NEAR NAVIGATION AIDS
Type NDB Name Port Hawkesbury Frequency 229 KHZ



Powered by Virtual Airlines Manager [v2.6.2]